sensor_id;sensor_type;location;lat;lon;timestamp;pressure;altitude;pressure_sealevel;temperature;humidity
23164;BME280;31429;42.674;23.350;2023-03-26T00:00:32;94303.50;;;12.05;100.00
23164;BME280;31429;42.674;23.350;2023-03-26T00:01:33;94304.72;;;11.98;100.00
23164;BME280;31429;42.674;23.350;2023-03-26T00:02:35;94300.66;;;11.94;100.00
23164;BME280;31429;42.674;23.350;2023-03-26T00:03:39;94300.69;;;11.77;100.00
23164;BME280;31429;42.674;23.350;2023-03-26T00:04:41;94297.19;;;11.78;100.00
23164;BME280;31429;42.674;23.350;2023-03-26T00:05:42;94306.16;;;11.86;100.00
23164;BME280;31429;42.674;23.350;2023-03-26T00:06:44;94308.41;;;11.92;100.00
23164;BME280;31429;42.674;23.350;2023-03-26T00:07:48;94307.56;;;12.09;100.00
23164;BME280;31429;42.674;23.350;2023-03-26T00:08:49;94313.38;;;11.78;100.00
23164;BME280;31429;42.674;23.350;2023-03-26T00:09:50;94312.25;;;11.84;100.00
23164;BME280;31429;42.674;23.350;2023-03-26T00:10:50;94311.06;;;11.74;100.00
23164;BME280;31429;42.674;23.350;2023-03-26T00:11:51;94313.47;;;11.77;100.00
23164;BME280;31429;42.674;23.350;2023-03-26T00:12:52;94312.09;;;11.87;100.00
23164;BME280;31429;42.674;23.350;2023-03-26T00:13:52;94314.97;;;11.98;100.00
23164;BME280;31429;42.674;23.350;2023-03-26T00:14:56;94308.88;;;11.66;100.00
23164;BME280;31429;42.674;23.350;2023-03-26T00:15:57;94307.88;;;11.51;100.00
23164;BME280;31429;42.674;23.350;2023-03-26T00:16:57;94305.22;;;11.53;100.00
23164;BME280;31429;42.674;23.350;2023-03-26T00:17:58;94291.59;;;11.52;100.00
23164;BME280;31429;42.674;23.350;2023-03-26T00:19:00;94298.91;;;11.43;100.00
23164;BME280;31429;42.674;23.350;2023-03-26T00:20:03;94300.19;;;11.34;100.00
23164;BME280;31429;42.674;23.350;2023-03-26T00:21:05;94295.50;;;11.42;100.00
23164;BME280;31429;42.674;23.350;2023-03-26T00:22:07;94291.44;;;11.38;100.00
23164;BME280;31429;42.674;23.350;2023-03-26T00:23:10;94284.44;;;11.59;100.00
23164;BME280;31429;42.674;23.350;2023-03-26T00:24:12;94283.03;;;11.88;100.00
23164;BME280;31429;42.674;23.350;2023-03-26T00:25:14;94283.56;;;11.60;100.00
23164;BME280;31429;42.674;23.350;2023-03-26T00:26:15;94284.00;;;11.51;100.00
23164;BME280;31429;42.674;23.350;2023-03-26T00:27:16;94283.75;;;11.55;100.00
23164;BME280;31429;42.674;23.350;2023-03-26T00:28:17;94282.94;;;11.38;100.00
23164;BME280;31429;42.674;23.350;2023-03-26T00:29:21;94281.69;;;11.46;100.00
23164;BME280;31429;42.674;23.350;2023-03-26T00:30:27;94282.19;;;11.53;100.00
23164;BME280;31429;42.674;23.350;2023-03-26T00:31:28;94291.28;;;11.41;100.00
23164;BME280;31429;42.674;23.350;2023-03-26T00:32:29;94282.19;;;11.36;100.00
23164;BME280;31429;42.674;23.350;2023-03-26T00:33:30;94288.72;;;11.24;100.00
23164;BME280;31429;42.674;23.350;2023-03-26T00:34:31;94279.56;;;11.37;100.00
23164;BME280;31429;42.674;23.350;2023-03-26T00:35:36;94280.06;;;11.44;100.00
23164;BME280;31429;42.674;23.350;2023-03-26T00:36:37;94278.44;;;11.60;100.00
23164;BME280;31429;42.674;23.350;2023-03-26T00:37:38;94274.75;;;11.48;100.00
23164;BME280;31429;42.674;23.350;2023-03-26T00:38:42;94273.50;;;11.74;100.00
23164;BME280;31429;42.674;23.350;2023-03-26T00:39:43;94276.84;;;11.58;100.00
23164;BME280;31429;42.674;23.350;2023-03-26T00:40:44;94280.31;;;11.39;100.00
23164;BME280;31429;42.674;23.350;2023-03-26T00:41:47;94278.88;;;11.34;100.00
23164;BME280;31429;42.674;23.350;2023-03-26T00:42:48;94275.19;;;11.39;100.00
23164;BME280;31429;42.674;23.350;2023-03-26T00:43:49;94277.06;;;11.53;100.00
23164;BME280;31429;42.674;23.350;2023-03-26T00:44:50;94281.50;;;11.32;100.00
23164;BME280;31429;42.674;23.350;2023-03-26T00:45:57;94273.00;;;11.32;100.00
23164;BME280;31429;42.674;23.350;2023-03-26T00:46:57;94267.56;;;11.55;100.00
23164;BME280;31429;42.674;23.350;2023-03-26T00:47:58;94273.91;;;11.48;100.00
23164;BME280;31429;42.674;23.350;2023-03-26T00:48:59;94276.72;;;11.61;100.00
23164;BME280;31429;42.674;23.350;2023-03-26T00:50:01;94287.53;;;11.66;100.00
23164;BME280;31429;42.674;23.350;2023-03-26T00:51:05;94277.81;;;11.89;100.00
23164;BME280;31429;42.674;23.350;2023-03-26T00:52:08;94274.63;;;11.86;100.00
23164;BME280;31429;42.674;23.350;2023-03-26T00:53:09;94277.78;;;11.74;100.00
23164;BME280;31429;42.674;23.350;2023-03-26T00:54:13;94274.22;;;11.59;100.00
23164;BME280;31429;42.674;23.350;2023-03-26T00:55:13;94281.06;;;11.59;100.00
23164;BME280;31429;42.674;23.350;2023-03-26T00:56:15;94266.97;;;11.33;100.00
23164;BME280;31429;42.674;23.350;2023-03-26T00:57:17;94279.03;;;11.48;100.00
23164;BME280;31429;42.674;23.350;2023-03-26T00:58:19;94276.25;;;11.70;100.00
23164;BME280;31429;42.674;23.350;2023-03-26T00:59:21;94281.38;;;11.70;100.00
23164;BME280;31429;42.674;23.350;2023-03-26T01:00:28;94280.56;;;11.52;100.00
23164;BME280;31429;42.674;23.350;2023-03-26T01:01:31;94280.69;;;11.49;100.00
23164;BME280;31429;42.674;23.350;2023-03-26T01:02:31;94279.31;;;11.59;100.00
23164;BME280;31429;42.674;23.350;2023-03-26T01:03:34;94274.28;;;11.40;100.00
23164;BME280;31429;42.674;23.350;2023-03-26T01:04:35;94283.41;;;11.46;100.00
23164;BME280;31429;42.674;23.350;2023-03-26T01:05:46;94283.00;;;11.36;100.00
23164;BME280;31429;42.674;23.350;2023-03-26T01:06:49;94285.66;;;11.52;100.00
23164;BME280;31429;42.674;23.350;2023-03-26T01:07:50;94284.16;;;11.65;100.00
23164;BME280;31429;42.674;23.350;2023-03-26T01:08:50;94288.88;;;11.55;100.00
23164;BME280;31429;42.674;23.350;2023-03-26T01:09:55;94285.41;;;11.39;100.00
23164;BME280;31429;42.674;23.350;2023-03-26T01:10:58;94279.91;;;11.64;100.00
23164;BME280;31429;42.674;23.350;2023-03-26T01:12:06;94279.31;;;11.59;100.00
23164;BME280;31429;42.674;23.350;2023-03-26T01:13:08;94283.41;;;11.46;100.00
23164;BME280;31429;42.674;23.350;2023-03-26T01:14:11;94279.31;;;11.25;100.00
23164;BME280;31429;42.674;23.350;2023-03-26T01:15:12;94282.72;;;11.42;100.00
23164;BME280;31429;42.674;23.350;2023-03-26T01:16:20;94284.97;;;11.48;100.00
23164;BME280;31429;42.674;23.350;2023-03-26T01:17:22;94286.25;;;11.57;100.00
23164;BME280;31429;42.674;23.350;2023-03-26T01:18:24;94286.09;;;11.43;100.00
23164;BME280;31429;42.674;23.350;2023-03-26T01:19:29;94292.44;;;11.53;100.00
23164;BME280;31429;42.674;23.350;2023-03-26T01:20:34;94298.75;;;11.46;100.00
23164;BME280;31429;42.674;23.350;2023-03-26T01:21:37;94293.69;;;11.44;100.00
23164;BME280;31429;42.674;23.350;2023-03-26T01:22:45;94291.97;;;11.45;100.00
23164;BME280;31429;42.674;23.350;2023-03-26T01:23:55;94299.34;;;11.34;100.00
23164;BME280;31429;42.674;23.350;2023-03-26T01:24:57;94304.88;;;11.43;100.00
23164;BME280;31429;42.674;23.350;2023-03-26T01:26:03;94285.19;;;11.61;100.00
23164;BME280;31429;42.674;23.350;2023-03-26T01:27:14;94292.81;;;11.63;100.00
23164;BME280;31429;42.674;23.350;2023-03-26T01:28:18;94302.66;;;11.72;100.00
23164;BME280;31429;42.674;23.350;2023-03-26T01:29:29;94301.63;;;11.57;100.00
23164;BME280;31429;42.674;23.350;2023-03-26T01:30:35;94300.63;;;11.42;100.00
23164;BME280;31429;42.674;23.350;2023-03-26T01:31:43;94296.47;;;11.23;100.00
23164;BME280;31429;42.674;23.350;2023-03-26T01:32:53;94309.19;;;11.24;100.00
23164;BME280;31429;42.674;23.350;2023-03-26T01:34:02;94311.63;;;11.44;100.00
23164;BME280;31429;42.674;23.350;2023-03-26T01:35:19;94314.63;;;11.35;100.00
23164;BME280;31429;42.674;23.350;2023-03-26T01:36:26;94306.50;;;11.44;100.00
23164;BME280;31429;42.674;23.350;2023-03-26T01:37:33;94311.41;;;11.49;100.00
23164;BME280;31429;42.674;23.350;2023-03-26T01:38:40;94312.75;;;11.39;100.00
23164;BME280;31429;42.674;23.350;2023-03-26T01:39:49;94308.84;;;11.32;100.00
23164;BME280;31429;42.674;23.350;2023-03-26T01:40:57;94314.16;;;11.27;100.00
23164;BME280;31429;42.674;23.350;2023-03-26T01:42:01;94304.06;;;11.24;100.00
23164;BME280;31429;42.674;23.350;2023-03-26T01:43:09;94309.09;;;11.09;100.00
23164;BME280;31429;42.674;23.350;2023-03-26T01:44:16;94309.47;;;11.18;100.00
23164;BME280;31429;42.674;23.350;2023-03-26T01:45:23;94299.13;;;11.03;100.00
23164;BME280;31429;42.674;23.350;2023-03-26T01:46:27;94306.28;;;11.13;100.00
23164;BME280;31429;42.674;23.350;2023-03-26T01:47:30;94311.03;;;11.04;100.00
23164;BME280;31429;42.674;23.350;2023-03-26T01:48:34;94306.66;;;11.06;100.00
23164;BME280;31429;42.674;23.350;2023-03-26T01:49:36;94304.66;;;11.12;100.00
23164;BME280;31429;42.674;23.350;2023-03-26T01:50:37;94320.72;;;10.97;100.00
23164;BME280;31429;42.674;23.350;2023-03-26T01:51:39;94317.31;;;10.96;100.00
23164;BME280;31429;42.674;23.350;2023-03-26T01:52:40;94312.66;;;11.23;100.00
23164;BME280;31429;42.674;23.350;2023-03-26T01:53:43;94321.91;;;11.26;100.00
23164;BME280;31429;42.674;23.350;2023-03-26T01:54:44;94318.75;;;11.21;100.00
23164;BME280;31429;42.674;23.350;2023-03-26T01:55:54;94317.84;;;11.39;100.00
23164;BME280;31429;42.674;23.350;2023-03-26T01:57:08;94310.56;;;11.13;100.00
23164;BME280;31429;42.674;23.350;2023-03-26T01:58:18;94316.38;;;11.16;100.00
23164;BME280;31429;42.674;23.350;2023-03-26T01:59:37;94315.38;;;11.37;100.00
23164;BME280;31429;42.674;23.350;2023-03-26T02:00:48;94313.03;;;11.33;100.00
23164;BME280;31429;42.674;23.350;2023-03-26T02:01:58;94314.47;;;11.38;100.00
23164;BME280;31429;42.674;23.350;2023-03-26T02:03:12;94306.94;;;11.00;100.00
23164;BME280;31429;42.674;23.350;2023-03-26T02:04:22;94304.81;;;11.09;100.00
23164;BME280;31429;42.674;23.350;2023-03-26T02:05:26;94317.13;;;11.01;100.00
23164;BME280;31429;42.674;23.350;2023-03-26T02:06:31;94314.00;;;11.30;100.00
23164;BME280;31429;42.674;23.350;2023-03-26T02:07:41;94318.16;;;11.33;100.00
23164;BME280;31429;42.674;23.350;2023-03-26T02:08:48;94306.59;;;11.07;100.00
23164;BME280;31429;42.674;23.350;2023-03-26T02:09:56;94306.81;;;11.03;100.00
23164;BME280;31429;42.674;23.350;2023-03-26T02:11:02;94308.53;;;11.21;100.00
23164;BME280;31429;42.674;23.350;2023-03-26T02:12:05;94312.94;;;10.98;100.00
23164;BME280;31429;42.674;23.350;2023-03-26T02:13:06;94311.78;;;10.87;100.00
23164;BME280;31429;42.674;23.350;2023-03-26T02:14:07;94307.25;;;10.75;100.00
23164;BME280;31429;42.674;23.350;2023-03-26T02:15:09;94307.59;;;10.49;100.00
23164;BME280;31429;42.674;23.350;2023-03-26T02:16:13;94309.25;;;10.50;100.00
23164;BME280;31429;42.674;23.350;2023-03-26T02:17:15;94299.03;;;10.50;100.00
23164;BME280;31429;42.674;23.350;2023-03-26T02:18:16;94312.84;;;10.46;100.00
23164;BME280;31429;42.674;23.350;2023-03-26T02:19:16;94316.75;;;10.34;100.00
23164;BME280;31429;42.674;23.350;2023-03-26T02:20:20;94301.56;;;10.31;100.00
23164;BME280;31429;42.674;23.350;2023-03-26T02:21:23;94317.06;;;10.47;100.00
23164;BME280;31429;42.674;23.350;2023-03-26T02:22:25;94314.41;;;10.29;100.00
23164;BME280;31429;42.674;23.350;2023-03-26T02:23:29;94311.03;;;10.29;100.00
23164;BME280;31429;42.674;23.350;2023-03-26T02:24:35;94319.94;;;10.39;100.00
23164;BME280;31429;42.674;23.350;2023-03-26T02:25:35;94313.69;;;10.46;100.00
23164;BME280;31429;42.674;23.350;2023-03-26T02:26:40;94309.00;;;10.56;100.00
23164;BME280;31429;42.674;23.350;2023-03-26T02:27:41;94298.25;;;10.48;100.00
23164;BME280;31429;42.674;23.350;2023-03-26T02:28:42;94288.81;;;10.50;100.00
23164;BME280;31429;42.674;23.350;2023-03-26T02:29:43;94306.66;;;10.70;100.00
23164;BME280;31429;42.674;23.350;2023-03-26T02:30:43;94313.81;;;10.62;100.00
23164;BME280;31429;42.674;23.350;2023-03-26T02:31:45;94313.09;;;10.39;100.00
23164;BME280;31429;42.674;23.350;2023-03-26T02:32:47;94301.50;;;10.32;100.00
23164;BME280;31429;42.674;23.350;2023-03-26T02:33:51;94300.19;;;10.43;100.00
23164;BME280;31429;42.674;23.350;2023-03-26T02:34:52;94307.09;;;10.59;100.00
23164;BME280;31429;42.674;23.350;2023-03-26T02:35:53;94308.00;;;10.77;100.00
23164;BME280;31429;42.674;23.350;2023-03-26T02:36:59;94303.09;;;10.54;100.00
23164;BME280;31429;42.674;23.350;2023-03-26T02:38:00;94309.69;;;10.78;100.00
23164;BME280;31429;42.674;23.350;2023-03-26T02:39:01;94304.91;;;10.33;100.00
23164;BME280;31429;42.674;23.350;2023-03-26T02:40:03;94304.34;;;10.45;100.00
23164;BME280;31429;42.674;23.350;2023-03-26T02:41:09;94311.59;;;10.54;100.00
23164;BME280;31429;42.674;23.350;2023-03-26T02:42:11;94317.22;;;10.81;100.00
23164;BME280;31429;42.674;23.350;2023-03-26T02:43:12;94316.34;;;10.99;100.00
23164;BME280;31429;42.674;23.350;2023-03-26T02:44:13;94317.47;;;10.93;100.00
23164;BME280;31429;42.674;23.350;2023-03-26T02:45:14;94307.50;;;10.87;100.00
23164;BME280;31429;42.674;23.350;2023-03-26T02:46:14;94321.22;;;10.86;100.00
23164;BME280;31429;42.674;23.350;2023-03-26T02:47:15;94311.22;;;10.99;100.00
23164;BME280;31429;42.674;23.350;2023-03-26T02:48:16;94321.66;;;11.13;100.00
23164;BME280;31429;42.674;23.350;2023-03-26T02:49:17;94325.72;;;11.17;100.00
23164;BME280;31429;42.674;23.350;2023-03-26T02:50:17;94316.72;;;11.27;100.00
23164;BME280;31429;42.674;23.350;2023-03-26T02:51:18;94328.09;;;11.03;100.00
23164;BME280;31429;42.674;23.350;2023-03-26T02:52:19;94328.84;;;11.05;100.00
23164;BME280;31429;42.674;23.350;2023-03-26T02:53:20;94332.84;;;11.11;100.00
23164;BME280;31429;42.674;23.350;2023-03-26T02:54:21;94333.97;;;11.24;100.00
23164;BME280;31429;42.674;23.350;2023-03-26T02:55:22;94320.00;;;11.12;100.00
23164;BME280;31429;42.674;23.350;2023-03-26T02:56:22;94326.81;;;10.94;100.00
23164;BME280;31429;42.674;23.350;2023-03-26T02:57:24;94326.31;;;10.86;100.00
23164;BME280;31429;42.674;23.350;2023-03-26T02:58:26;94335.63;;;10.87;100.00
23164;BME280;31429;42.674;23.350;2023-03-26T02:59:29;94332.06;;;10.91;100.00
23164;BME280;31429;42.674;23.350;2023-03-26T03:00:30;94342.28;;;10.91;100.00
23164;BME280;31429;42.674;23.350;2023-03-26T03:01:31;94342.34;;;10.71;100.00
23164;BME280;31429;42.674;23.350;2023-03-26T03:02:34;94342.97;;;10.58;100.00
23164;BME280;31429;42.674;23.350;2023-03-26T03:03:37;94340.69;;;10.70;100.00
23164;BME280;31429;42.674;23.350;2023-03-26T03:04:38;94330.34;;;10.92;100.00
23164;BME280;31429;42.674;23.350;2023-03-26T03:05:39;94339.16;;;10.85;100.00
23164;BME280;31429;42.674;23.350;2023-03-26T03:06:42;94337.59;;;10.82;100.00
23164;BME280;31429;42.674;23.350;2023-03-26T03:07:44;94345.13;;;10.85;100.00
23164;BME280;31429;42.674;23.350;2023-03-26T03:08:45;94336.09;;;10.78;100.00
23164;BME280;31429;42.674;23.350;2023-03-26T03:09:46;94332.03;;;10.73;100.00
23164;BME280;31429;42.674;23.350;2023-03-26T03:10:57;94344.75;;;10.93;100.00
23164;BME280;31429;42.674;23.350;2023-03-26T03:11:58;94346.84;;;10.85;100.00
23164;BME280;31429;42.674;23.350;2023-03-26T03:13:00;94335.66;;;10.69;100.00
23164;BME280;31429;42.674;23.350;2023-03-26T03:14:01;94326.72;;;10.59;100.00
23164;BME280;31429;42.674;23.350;2023-03-26T03:15:02;94332.13;;;10.53;100.00
23164;BME280;31429;42.674;23.350;2023-03-26T03:16:03;94342.66;;;10.84;100.00
23164;BME280;31429;42.674;23.350;2023-03-26T03:17:04;94331.44;;;10.49;100.00
23164;BME280;31429;42.674;23.350;2023-03-26T03:18:05;94339.97;;;10.48;100.00
23164;BME280;31429;42.674;23.350;2023-03-26T03:19:06;94337.72;;;10.61;100.00
23164;BME280;31429;42.674;23.350;2023-03-26T03:20:07;94347.38;;;10.35;100.00
23164;BME280;31429;42.674;23.350;2023-03-26T03:21:11;94348.75;;;10.43;100.00
23164;BME280;31429;42.674;23.350;2023-03-26T03:22:12;94353.84;;;10.24;100.00
23164;BME280;31429;42.674;23.350;2023-03-26T03:23:12;94355.78;;;9.97;100.00
23164;BME280;31429;42.674;23.350;2023-03-26T03:24:13;94352.78;;;9.88;100.00
23164;BME280;31429;42.674;23.350;2023-03-26T03:25:17;94356.69;;;10.16;100.00
23164;BME280;31429;42.674;23.350;2023-03-26T03:26:22;94352.59;;;10.12;100.00
23164;BME280;31429;42.674;23.350;2023-03-26T03:27:27;94340.00;;;9.88;100.00
23164;BME280;31429;42.674;23.350;2023-03-26T03:28:29;94365.84;;;10.02;100.00
23164;BME280;31429;42.674;23.350;2023-03-26T03:29:29;94365.88;;;10.00;100.00
23164;BME280;31429;42.674;23.350;2023-03-26T03:30:30;94364.03;;;9.83;100.00
23164;BME280;31429;42.674;23.350;2023-03-26T03:31:31;94360.09;;;10.17;100.00
23164;BME280;31429;42.674;23.350;2023-03-26T03:32:32;94361.88;;;10.15;100.00
23164;BME280;31429;42.674;23.350;2023-03-26T03:33:33;94367.03;;;9.93;100.00
23164;BME280;31429;42.674;23.350;2023-03-26T03:34:33;94358.88;;;10.25;100.00
23164;BME280;31429;42.674;23.350;2023-03-26T03:35:37;94366.47;;;10.07;100.00
23164;BME280;31429;42.674;23.350;2023-03-26T03:36:39;94355.75;;;9.99;100.00
23164;BME280;31429;42.674;23.350;2023-03-26T03:37:39;94362.19;;;9.87;100.00
23164;BME280;31429;42.674;23.350;2023-03-26T03:38:40;94352.94;;;9.85;100.00
23164;BME280;31429;42.674;23.350;2023-03-26T03:39:41;94361.47;;;9.83;100.00
23164;BME280;31429;42.674;23.350;2023-03-26T03:40:42;94331.34;;;9.92;100.00
23164;BME280;31429;42.674;23.350;2023-03-26T03:41:42;94332.06;;;10.15;100.00
23164;BME280;31429;42.674;23.350;2023-03-26T03:42:43;94354.31;;;9.92;100.00
23164;BME280;31429;42.674;23.350;2023-03-26T03:43:45;94337.53;;;9.86;100.00
23164;BME280;31429;42.674;23.350;2023-03-26T03:44:46;94346.84;;;9.67;100.00
23164;BME280;31429;42.674;23.350;2023-03-26T03:45:46;94339.59;;;9.78;100.00
23164;BME280;31429;42.674;23.350;2023-03-26T03:46:47;94345.06;;;9.89;100.00
23164;BME280;31429;42.674;23.350;2023-03-26T03:47:53;94349.84;;;9.76;100.00
23164;BME280;31429;42.674;23.350;2023-03-26T03:48:54;94355.16;;;9.72;100.00
23164;BME280;31429;42.674;23.350;2023-03-26T03:49:55;94343.81;;;9.79;100.00
23164;BME280;31429;42.674;23.350;2023-03-26T03:50:56;94353.56;;;9.69;100.00
23164;BME280;31429;42.674;23.350;2023-03-26T03:51:57;94358.34;;;9.35;100.00
23164;BME280;31429;42.674;23.350;2023-03-26T03:52:57;94355.19;;;9.29;100.00
23164;BME280;31429;42.674;23.350;2023-03-26T03:53:58;94366.84;;;9.36;100.00
23164;BME280;31429;42.674;23.350;2023-03-26T03:54:59;94369.94;;;9.64;100.00
23164;BME280;31429;42.674;23.350;2023-03-26T03:55:59;94368.31;;;9.41;100.00
23164;BME280;31429;42.674;23.350;2023-03-26T03:57:01;94366.63;;;9.62;100.00
23164;BME280;31429;42.674;23.350;2023-03-26T03:58:02;94365.81;;;9.81;100.00
23164;BME280;31429;42.674;23.350;2023-03-26T03:59:06;94366.59;;;10.04;100.00
23164;BME280;31429;42.674;23.350;2023-03-26T04:00:09;94361.94;;;10.13;100.00
23164;BME280;31429;42.674;23.350;2023-03-26T04:01:11;94372.69;;;10.00;100.00
23164;BME280;31429;42.674;23.350;2023-03-26T04:02:12;94367.22;;;9.89;100.00
23164;BME280;31429;42.674;23.350;2023-03-26T04:03:13;94373.53;;;9.80;100.00
23164;BME280;31429;42.674;23.350;2023-03-26T04:04:14;94379.00;;;9.71;100.00
23164;BME280;31429;42.674;23.350;2023-03-26T04:05:15;94368.38;;;9.81;100.00
23164;BME280;31429;42.674;23.350;2023-03-26T04:06:16;94360.25;;;9.92;100.00
23164;BME280;31429;42.674;23.350;2023-03-26T04:07:18;94366.84;;;9.98;100.00
23164;BME280;31429;42.674;23.350;2023-03-26T04:08:20;94364.53;;;9.92;100.00
23164;BME280;31429;42.674;23.350;2023-03-26T04:09:21;94373.50;;;10.22;100.00
23164;BME280;31429;42.674;23.350;2023-03-26T04:10:22;94368.19;;;10.06;100.00
23164;BME280;31429;42.674;23.350;2023-03-26T04:11:22;94371.09;;;9.97;100.00
23164;BME280;31429;42.674;23.350;2023-03-26T04:12:23;94381.03;;;9.63;100.00
23164;BME280;31429;42.674;23.350;2023-03-26T04:13:24;94383.28;;;9.91;100.00
23164;BME280;31429;42.674;23.350;2023-03-26T04:14:26;94388.34;;;10.12;100.00
23164;BME280;31429;42.674;23.350;2023-03-26T04:15:27;94391.50;;;10.19;100.00
23164;BME280;31429;42.674;23.350;2023-03-26T04:16:27;94385.44;;;10.01;100.00
23164;BME280;31429;42.674;23.350;2023-03-26T04:17:28;94401.03;;;9.94;100.00
23164;BME280;31429;42.674;23.350;2023-03-26T04:18:29;94393.59;;;9.89;100.00
23164;BME280;31429;42.674;23.350;2023-03-26T04:19:31;94403.41;;;9.78;100.00
23164;BME280;31429;42.674;23.350;2023-03-26T04:20:32;94405.72;;;9.84;100.00
23164;BME280;31429;42.674;23.350;2023-03-26T04:21:33;94406.94;;;9.74;100.00
23164;BME280;31429;42.674;23.350;2023-03-26T04:22:37;94408.34;;;9.61;100.00
23164;BME280;31429;42.674;23.350;2023-03-26T04:23:39;94413.78;;;9.73;100.00
23164;BME280;31429;42.674;23.350;2023-03-26T04:24:41;94410.88;;;10.24;100.00
23164;BME280;31429;42.674;23.350;2023-03-26T04:25:42;94420.25;;;10.24;100.00
23164;BME280;31429;42.674;23.350;2023-03-26T04:26:47;94426.03;;;10.27;100.00
23164;BME280;31429;42.674;23.350;2023-03-26T04:27:49;94429.66;;;10.02;100.00
23164;BME280;31429;42.674;23.350;2023-03-26T04:28:52;94433.16;;;9.99;100.00
23164;BME280;31429;42.674;23.350;2023-03-26T04:29:55;94436.41;;;10.03;100.00
23164;BME280;31429;42.674;23.350;2023-03-26T04:30:59;94431.91;;;9.88;100.00
23164;BME280;31429;42.674;23.350;2023-03-26T04:32:00;94442.03;;;10.11;100.00
23164;BME280;31429;42.674;23.350;2023-03-26T04:33:07;94439.66;;;9.86;100.00
23164;BME280;31429;42.674;23.350;2023-03-26T04:34:18;94442.84;;;9.91;100.00
23164;BME280;31429;42.674;23.350;2023-03-26T04:35:19;94451.03;;;9.79;100.00
23164;BME280;31429;42.674;23.350;2023-03-26T04:36:24;94447.66;;;9.99;100.00
23164;BME280;31429;42.674;23.350;2023-03-26T04:37:28;94448.31;;;10.04;100.00
23164;BME280;31429;42.674;23.350;2023-03-26T04:38:39;94449.00;;;9.87;100.00
23164;BME280;31429;42.674;23.350;2023-03-26T04:39:40;94437.44;;;9.99;100.00
23164;BME280;31429;42.674;23.350;2023-03-26T04:40:40;94429.44;;;9.86;100.00
23164;BME280;31429;42.674;23.350;2023-03-26T04:41:41;94455.38;;;9.97;100.00
23164;BME280;31429;42.674;23.350;2023-03-26T04:42:42;94454.72;;;9.92;100.00
23164;BME280;31429;42.674;23.350;2023-03-26T04:43:45;94456.44;;;9.92;100.00
23164;BME280;31429;42.674;23.350;2023-03-26T04:44:49;94454.94;;;10.08;100.00
23164;BME280;31429;42.674;23.350;2023-03-26T04:45:53;94454.13;;;10.07;100.00
23164;BME280;31429;42.674;23.350;2023-03-26T04:46:54;94455.78;;;10.08;100.00
23164;BME280;31429;42.674;23.350;2023-03-26T04:47:55;94449.38;;;9.98;100.00
23164;BME280;31429;42.674;23.350;2023-03-26T04:48:55;94460.44;;;9.99;100.00
23164;BME280;31429;42.674;23.350;2023-03-26T04:49:56;94453.47;;;10.02;100.00
23164;BME280;31429;42.674;23.350;2023-03-26T04:50:56;94460.31;;;10.02;100.00
23164;BME280;31429;42.674;23.350;2023-03-26T04:51:58;94448.09;;;10.30;100.00
23164;BME280;31429;42.674;23.350;2023-03-26T04:52:58;94468.41;;;10.33;100.00
23164;BME280;31429;42.674;23.350;2023-03-26T04:54:00;94459.78;;;10.35;100.00
23164;BME280;31429;42.674;23.350;2023-03-26T04:55:02;94455.44;;;10.37;100.00
23164;BME280;31429;42.674;23.350;2023-03-26T04:56:07;94462.91;;;10.42;100.00
23164;BME280;31429;42.674;23.350;2023-03-26T04:57:17;94458.63;;;10.63;100.00
23164;BME280;31429;42.674;23.350;2023-03-26T04:58:19;94460.09;;;10.28;100.00
23164;BME280;31429;42.674;23.350;2023-03-26T04:59:22;94457.28;;;10.54;100.00
23164;BME280;31429;42.674;23.350;2023-03-26T05:00:29;94460.41;;;10.61;100.00
23164;BME280;31429;42.674;23.350;2023-03-26T05:01:31;94465.53;;;10.61;100.00
23164;BME280;31429;42.674;23.350;2023-03-26T05:02:32;94463.22;;;10.55;100.00
23164;BME280;31429;42.674;23.350;2023-03-26T05:03:33;94463.28;;;10.53;100.00
23164;BME280;31429;42.674;23.350;2023-03-26T05:04:34;94444.63;;;10.31;100.00
23164;BME280;31429;42.674;23.350;2023-03-26T05:05:36;94447.78;;;10.37;100.00
23164;BME280;31429;42.674;23.350;2023-03-26T05:06:37;94459.00;;;10.74;100.00
23164;BME280;31429;42.674;23.350;2023-03-26T05:07:39;94455.47;;;10.56;100.00
23164;BME280;31429;42.674;23.350;2023-03-26T05:08:41;94468.00;;;10.62;100.00
23164;BME280;31429;42.674;23.350;2023-03-26T05:09:42;94458.50;;;10.66;100.00
23164;BME280;31429;42.674;23.350;2023-03-26T05:10:42;94465.69;;;10.76;100.00
23164;BME280;31429;42.674;23.350;2023-03-26T05:11:43;94455.06;;;10.85;100.00
23164;BME280;31429;42.674;23.350;2023-03-26T05:12:44;94465.31;;;10.85;100.00
23164;BME280;31429;42.674;23.350;2023-03-26T05:13:44;94468.84;;;11.02;100.00
23164;BME280;31429;42.674;23.350;2023-03-26T05:14:46;94466.84;;;11.08;100.00
23164;BME280;31429;42.674;23.350;2023-03-26T05:15:47;94474.56;;;10.88;100.00
23164;BME280;31429;42.674;23.350;2023-03-26T05:16:49;94479.34;;;10.95;100.00
23164;BME280;31429;42.674;23.350;2023-03-26T05:17:52;94470.25;;;11.09;100.00
23164;BME280;31429;42.674;23.350;2023-03-26T05:18:54;94472.81;;;11.09;100.00
23164;BME280;31429;42.674;23.350;2023-03-26T05:19:55;94475.63;;;11.03;100.00
23164;BME280;31429;42.674;23.350;2023-03-26T05:20:56;94480.03;;;10.99;100.00
23164;BME280;31429;42.674;23.350;2023-03-26T05:21:57;94471.69;;;11.14;100.00
23164;BME280;31429;42.674;23.350;2023-03-26T05:22:57;94472.19;;;11.22;100.00
23164;BME280;31429;42.674;23.350;2023-03-26T05:23:58;94461.38;;;10.97;100.00
23164;BME280;31429;42.674;23.350;2023-03-26T05:24:59;94467.78;;;11.26;100.00